Aérodrome :







RETROUVEZ-NOUS SUR...

 
LOGIN :

S'inscrire | Disclaimer

   EN    FR    IT 

 









Légende :    VFR   VFR Marginal   IFR   IFR Intensif   IFR Très Intensif
Visi : 
Plafond : 
>= 8 km
>= 3000ft
5 à 8 km
1000 à 3000 ft
1500m à 5 km
500 à 1000 ft
800 à 1500m
200 à 500 ft
< 800m
< 200 ft
Symboles :   Orages  Brouillard  Fortes neiges  Fortes précipitations  Vent > 20 kt






- Altitude de l'aérodrome : 36 ft
- Code IATA : PTP


TFFR - Le Raizet

DERNIER METAR :
  • 060030Z AUTO 16004KT 130V190 CAVOK 26/23 Q1015 NOSIG

METARs EXPIRÉS :
  • 060000Z AUTO 16006KT CAVOK 26/23 Q1014 NOSIG
  • 052330Z AUTO 14008KT CAVOK 26/23 Q1014 NOSIG
  • 052300Z AUTO 14008KT CAVOK 26/23 Q1014 NOSIG
  • 052230Z AUTO 13008KT CAVOK 27/23 Q1014 NOSIG
  • 052200Z AUTO 12010KT 090V160 CAVOK 27/23 Q1013 NOSIG

TAF TAF TFFR
Valide du 06 à 00h jusqu'au 07 à 00h UTC


052300Z 0600/0624 14010KT 9999 SCT030
PROB40
TEMPO 0602/0610 VRB02KT
PROB30
TEMPO 0606/0612 4000 SHRA FEW020TCU



MET'MAP, la Météo Aéronautique d'un coup d'oeil ! - Copyright ORBIFLY Décembre 2007 - Disclaimer

ORBIFLY MET'MAP TEAM :

Programmation & Développement : Alexandra Zaïnal
Sur une idée originale de : Baudouin d'Aumeries
Assistance à la programmation : Marc-Olivier Méhu
Soutien technique & logistique : Manuel Goepfert

Contact : metmap@orbifly.com




SOURCES & CREDITS :

   NOAA